Time;durP1;ratioP1;P1;durP2;ratioP2;P2;SDS_P1;SDS_P2;PMS_P1;PMS_P2;Temp;Humidity;BMP_temperature;BMP_pressure;BME280_temperature;BME280_humidity;BME280_pressure;Samples;Min_cycle;Max_cycle;Signal;HPM_P1;HPM_P2
2023/02/14 00:00:33;;;;;;;86.75;19.83;;;-0.20;1.00;;;;;;5051945;28;20206;-62
2023/02/14 00:03:00;;;;;;;85.93;19.20;;;-0.30;1.00;;;;;;5052483;28;20202;-62
2023/02/14 00:05:26;;;;;;;83.32;18.98;;;-0.30;1.00;;;;;;5052057;28;20236;-62
2023/02/14 00:07:53;;;;;;;86.22;21.58;;;-0.30;1.00;;;;;;5052174;28;20675;-62
2023/02/14 00:10:20;;;;;;;88.60;21.15;;;-0.30;1.00;;;;;;5051882;28;20678;-62
2023/02/14 00:12:47;;;;;;;94.05;20.60;;;-0.30;1.00;;;;;;5052049;28;20202;-62
2023/02/14 00:15:22;;;;;;;85.82;19.58;;;-0.20;1.00;;;;;;5052241;28;20227;-62
2023/02/14 00:17:50;;;;;;;89.60;21.75;;;-0.20;1.00;;;;;;5052085;28;20684;-62
2023/02/14 00:20:18;;;;;;;89.50;21.88;;;-0.20;1.00;;;;;;5051799;28;20209;-62
2023/02/14 00:22:44;;;;;;;84.03;18.75;;;-0.30;1.00;;;;;;5051733;28;20705;-62
2023/02/14 00:25:11;;;;;;;85.05;19.45;;;-0.30;1.00;;;;;;5051774;28;20236;-62
2023/02/14 00:27:38;;;;;;;87.68;20.70;;;-0.30;1.00;;;;;;5051846;28;20206;-62
2023/02/14 00:30:06;;;;;;;92.45;22.02;;;-0.30;1.00;;;;;;5051576;28;20207;-62
2023/02/14 00:32:33;;;;;;;91.13;21.88;;;-0.30;1.00;;;;;;5051633;28;20220;-62
2023/02/14 00:35:01;;;;;;;86.95;20.73;;;-0.40;1.00;;;;;;5052129;28;20227;-62
2023/02/14 00:37:56;;;;;;;90.63;20.35;;;-0.40;1.00;;;;;;5051847;28;20206;-62
2023/02/14 00:40:22;;;;;;;89.35;22.38;;;-0.40;1.00;;;;;;5051755;28;20206;-62
2023/02/14 00:42:49;;;;;;;86.13;20.75;;;-0.40;1.00;;;;;;5051737;28;20704;-62
2023/02/14 00:45:17;;;;;;;99.10;27.15;;;-0.50;1.00;;;;;;5051667;28;20580;-62
2023/02/14 00:47:44;;;;;;;98.57;27.15;;;-0.40;1.00;;;;;;5051661;28;20222;-62
2023/02/14 00:50:12;;;;;;;90.55;21.52;;;-0.50;1.00;;;;;;5051328;28;20206;-62
2023/02/14 00:52:39;;;;;;;85.30;21.27;;;-0.50;1.00;;;;;;5051543;28;20210;-62
2023/02/14 00:55:06;;;;;;;91.38;21.60;;;-0.50;1.00;;;;;;5051704;28;20218;-62
2023/02/14 00:57:33;;;;;;;88.57;20.02;;;-0.50;1.00;;;;;;5051514;28;20685;-62
2023/02/14 01:00:00;;;;;;;88.78;22.02;;;-0.50;1.00;;;;;;5051245;28;20827;-62
2023/02/14 01:02:26;;;;;;;85.07;21.23;;;-0.50;1.00;;;;;;5051441;28;20676;-62
2023/02/14 01:04:53;;;;;;;95.38;23.73;;;-0.70;1.00;;;;;;5051315;28;20738;-62
2023/02/14 01:07:21;;;;;;;88.40;22.10;;;-0.60;1.00;;;;;;5051707;28;20240;-62
2023/02/14 01:10:42;;;;;;;84.20;19.77;;;-0.70;1.00;;;;;;5051123;28;20206;-62
2023/02/14 01:13:09;;;;;;;95.50;22.50;;;-0.60;1.00;;;;;;5049739;28;20212;-62
2023/02/14 01:15:39;;;;;;;90.80;20.63;;;-0.70;1.00;;;;;;5051459;28;20229;-62
2023/02/14 01:18:05;;;;;;;96.15;21.23;;;-0.70;1.00;;;;;;5060304;28;20217;-63
2023/02/14 01:20:32;;;;;;;95.22;22.42;;;-0.70;1.00;;;;;;5071076;28;20394;-62
2023/02/14 01:23:01;;;;;;;87.88;21.65;;;-0.70;1.00;;;;;;5071245;28;20292;-62
2023/02/14 01:25:28;;;;;;;85.05;20.98;;;-0.70;1.00;;;;;;5071163;28;20224;-62
2023/02/14 01:27:55;;;;;;;93.72;21.05;;;-0.70;1.00;;;;;;5071472;28;20205;-62
2023/02/14 01:30:22;;;;;;;85.93;20.42;;;-0.70;1.00;;;;;;5071040;28;20205;-62
2023/02/14 01:32:49;;;;;;;90.68;21.60;;;-0.70;1.00;;;;;;5071258;28;20206;-62
2023/02/14 01:35:16;;;;;;;87.10;21.50;;;-0.70;1.00;;;;;;5071138;28;20228;-62
2023/02/14 01:37:42;;;;;;;85.60;20.10;;;-0.70;1.00;;;;;;5071290;28;20205;-62
2023/02/14 01:40:12;;;;;;;92.10;22.55;;;-0.70;1.00;;;;;;5070806;28;20215;-62
2023/02/14 01:42:39;;;;;;;90.25;19.42;;;-0.80;1.00;;;;;;5072789;28;20233;-62
2023/02/14 01:45:09;;;;;;;88.65;21.20;;;-0.90;1.00;;;;;;5074879;28;20229;-62
2023/02/14 01:47:41;;;;;;;89.45;21.67;;;-1.10;1.00;;;;;;5075212;28;20566;-62
2023/02/14 01:50:11;;;;;;;89.85;21.20;;;-1.10;1.00;;;;;;5074407;28;20204;-62
2023/02/14 01:52:44;;;;;;;93.18;20.17;;;-1.00;1.00;;;;;;5074615;28;20212;-63
2023/02/14 01:55:15;;;;;;;88.10;18.80;;;-1.00;1.00;;;;;;5074633;28;20228;-62
2023/02/14 01:57:46;;;;;;;89.03;20.75;;;-1.00;1.00;;;;;;5074652;28;20212;-62
2023/02/14 02:02:59;;;;;;;90.30;20.00;;;-1.10;1.00;;;;;;5074502;28;20252;-62
2023/02/14 02:05:27;;;;;;;87.43;20.00;;;-1.10;1.00;;;;;;5074556;28;20236;-62
2023/02/14 02:07:58;;;;;;;86.55;19.98;;;-1.10;1.00;;;;;;5074499;28;20215;-62
2023/02/14 02:10:26;;;;;;;94.43;22.42;;;-1.10;1.00;;;;;;5074351;28;20296;-62
2023/02/14 02:12:54;;;;;;;87.25;21.23;;;-1.20;1.00;;;;;;5074508;28;20555;-62
2023/02/14 02:15:25;;;;;;;88.22;19.20;;;-1.10;1.00;;;;;;5074333;28;20221;-62
2023/02/14 02:18:00;;;;;;;90.13;20.98;;;-1.10;1.00;;;;;;5074648;28;20206;-62
2023/02/14 02:21:01;;;;;;;87.20;21.65;;;-1.10;1.00;;;;;;5074135;28;20582;-62
2023/02/14 02:24:04;;;;;;;91.32;21.35;;;-1.10;1.00;;;;;;5040639;28;20212;-62
2023/02/14 02:27:04;;;;;;;90.80;18.73;;;-1.10;1.00;;;;;;5012099;28;20231;-62
2023/02/14 02:30:10;;;;;;;87.93;20.70;;;-1.20;1.00;;;;;;4987627;28;20211;-62
2023/02/14 02:33:09;;;;;;;89.22;19.77;;;-1.10;1.00;;;;;;4987687;28;20207;-62
2023/02/14 02:35:53;;;;;;;88.70;20.23;;;-1.20;1.00;;;;;;5002133;28;20223;-62
2023/02/14 02:38:36;;;;;;;91.32;21.17;;;-1.20;1.00;;;;;;5011704;28;20207;-62
2023/02/14 02:41:09;;;;;;;85.65;18.90;;;-1.20;1.00;;;;;;5011928;28;20277;-62
2023/02/14 02:43:44;;;;;;;84.80;20.13;;;-1.30;1.00;;;;;;5011742;28;20211;-62
2023/02/14 02:49:12;;;;;;;94.28;20.50;;;-1.30;1.00;;;;;;5011354;28;20203;-62
2023/02/14 02:54:36;;;;;;;89.55;20.33;;;-1.30;1.00;;;;;;5010997;28;20301;-63
2023/02/14 02:57:06;;;;;;;91.28;20.55;;;-1.30;1.00;;;;;;5033419;28;20239;-62
2023/02/14 02:59:36;;;;;;;89.72;19.55;;;-1.30;1.00;;;;;;5071505;28;20197;-63
2023/02/14 03:02:09;;;;;;;84.45;19.60;;;-1.30;1.00;;;;;;5073660;28;20213;-62
2023/02/14 03:04:52;;;;;;;96.63;21.17;;;-1.40;1.00;;;;;;5073470;28;20229;-63
2023/02/14 03:07:35;;;;;;;92.15;21.27;;;-1.40;1.00;;;;;;5073375;28;20254;-62
2023/02/14 03:10:06;;;;;;;90.82;20.08;;;-1.40;1.00;;;;;;5072857;28;20664;-62
2023/02/14 03:13:15;;;;;;;90.60;20.35;;;-1.30;1.00;;;;;;5073518;28;20232;-63
2023/02/14 03:15:58;;;;;;;88.32;19.05;;;-1.40;1.00;;;;;;5073184;28;20227;-62
2023/02/14 03:18:39;;;;;;;87.30;20.27;;;-1.50;1.00;;;;;;5072909;28;20208;-62
2023/02/14 03:21:16;;;;;;;87.22;20.17;;;-1.50;1.00;;;;;;5073055;28;20201;-62
2023/02/14 03:23:49;;;;;;;85.95;21.83;;;-1.40;1.00;;;;;;5072820;28;20217;-63
2023/02/14 03:26:18;;;;;;;93.97;21.08;;;-1.30;1.00;;;;;;5073040;28;20580;-62
2023/02/14 03:28:50;;;;;;;87.50;18.95;;;-1.30;1.00;;;;;;5072477;28;20209;-62
2023/02/14 03:31:23;;;;;;;92.55;21.25;;;-1.30;1.00;;;;;;5073331;28;20212;-62
2023/02/14 03:33:56;;;;;;;94.70;22.88;;;-1.30;1.00;;;;;;5072827;28;20216;-62
2023/02/14 03:36:27;;;;;;;89.30;20.88;;;-1.30;1.00;;;;;;5072885;28;20201;-62
2023/02/14 03:39:02;;;;;;;88.93;19.45;;;-1.30;1.00;;;;;;5072524;28;20205;-62
2023/02/14 03:41:36;;;;;;;88.95;20.50;;;-1.30;1.00;;;;;;5072629;28;20607;-62
2023/02/14 03:44:08;;;;;;;89.70;20.10;;;-1.40;1.00;;;;;;5072938;28;20225;-62
2023/02/14 03:46:40;;;;;;;87.93;19.88;;;-1.40;1.00;;;;;;5072539;28;20229;-62
2023/02/14 03:49:11;;;;;;;91.55;20.58;;;-1.40;1.00;;;;;;5072101;28;20209;-62
2023/02/14 03:51:40;;;;;;;91.20;21.67;;;-1.40;1.00;;;;;;5072315;28;20228;-62
2023/02/14 03:54:12;;;;;;;96.45;22.73;;;-1.50;1.00;;;;;;5072580;28;20225;-62
2023/02/14 03:56:44;;;;;;;90.93;20.35;;;-1.50;1.00;;;;;;5072655;28;20205;-62
2023/02/14 03:59:14;;;;;;;88.45;19.00;;;-1.40;1.00;;;;;;5072205;28;20586;-63
2023/02/14 04:01:46;;;;;;;85.80;18.75;;;-1.50;1.00;;;;;;5072300;28;20210;-62
2023/02/14 04:04:15;;;;;;;89.15;20.27;;;-1.60;1.00;;;;;;5072063;28;20235;-62
2023/02/14 04:06:41;;;;;;;89.20;21.10;;;-1.60;1.00;;;;;;5071220;28;20220;-62
2023/02/14 04:09:10;;;;;;;87.55;20.23;;;-1.60;1.00;;;;;;5071998;28;20209;-62
2023/02/14 04:11:37;;;;;;;84.72;18.85;;;-1.70;1.00;;;;;;5072261;28;20208;-62
2023/02/14 04:14:04;;;;;;;89.78;20.80;;;-1.60;1.00;;;;;;5072081;28;20235;-62
2023/02/14 04:19:21;;;;;;;89.18;21.02;;;-1.50;1.00;;;;;;5072017;28;20205;-62
2023/02/14 04:19:27;;;;;;;85.47;19.23;;;-1.50;1.00;;;;;;5071524;28;20205;-62
2023/02/14 04:21:54;;;;;;;95.10;22.10;;;-1.50;1.00;;;;;;5072243;28;20553;-62
2023/02/14 04:24:22;;;;;;;91.32;21.65;;;-1.50;1.00;;;;;;5071845;28;20489;-62
2023/02/14 04:27:08;;;;;;;89.90;20.52;;;-1.50;1.00;;;;;;5071840;28;20225;-62
2023/02/14 04:29:36;;;;;;;89.18;20.88;;;-1.50;1.00;;;;;;5071872;28;20211;-62
2023/02/14 04:32:02;;;;;;;91.03;20.90;;;-1.50;1.00;;;;;;5072055;28;20255;-62
2023/02/14 04:34:29;;;;;;;90.00;19.83;;;-1.50;1.00;;;;;;5071787;28;20225;-62
2023/02/14 04:36:56;;;;;;;89.03;21.48;;;-1.50;1.00;;;;;;5071771;28;20212;-62
2023/02/14 04:39:24;;;;;;;86.47;21.33;;;-1.60;1.00;;;;;;5071498;28;20676;-62
2023/02/14 04:41:51;;;;;;;90.38;19.77;;;-1.60;1.00;;;;;;5071736;28;20209;-62
2023/02/14 04:44:18;;;;;;;89.15;20.90;;;-1.60;1.00;;;;;;5071884;28;20220;-62
2023/02/14 04:46:44;;;;;;;94.53;21.10;;;-1.60;1.00;;;;;;5071707;28;20231;-62
2023/02/14 04:49:11;;;;;;;91.70;21.88;;;-1.70;1.00;;;;;;5071339;28;20300;-62
2023/02/14 04:51:38;;;;;;;94.45;22.60;;;-1.60;1.00;;;;;;5071802;28;20201;-63
2023/02/14 04:54:05;;;;;;;88.70;20.25;;;-1.70;1.00;;;;;;5071598;28;20246;-62
2023/02/14 04:56:33;;;;;;;90.18;21.63;;;-1.70;1.00;;;;;;5071880;28;20197;-62
2023/02/14 04:59:00;;;;;;;82.25;17.63;;;-1.70;1.00;;;;;;5071478;28;20587;-62
2023/02/14 05:01:27;;;;;;;88.82;20.25;;;-1.70;1.00;;;;;;5071700;28;20213;-62
2023/02/14 05:03:54;;;;;;;84.53;19.92;;;-1.70;1.00;;;;;;5071614;28;20304;-62
2023/02/14 05:06:20;;;;;;;90.90;20.75;;;-1.80;1.00;;;;;;5071486;28;20225;-62
2023/02/14 05:08:47;;;;;;;86.72;18.80;;;-1.80;1.00;;;;;;5070967;28;20591;-63
2023/02/14 05:11:14;;;;;;;91.63;21.63;;;-1.70;1.00;;;;;;5071278;28;20202;-62
2023/02/14 05:13:42;;;;;;;90.10;19.92;;;-1.80;1.00;;;;;;5071559;28;20206;-62
2023/02/14 05:16:09;;;;;;;88.93;19.95;;;-1.80;1.00;;;;;;5071486;28;20209;-62
2023/02/14 05:18:36;;;;;;;88.60;20.67;;;-1.80;1.00;;;;;;5074633;28;20212;-63
2023/02/14 05:21:02;;;;;;;90.57;21.40;;;-1.80;1.00;;;;;;5075373;28;20563;-63
2023/02/14 05:23:29;;;;;;;90.32;19.90;;;-1.80;1.00;;;;;;5075131;28;20213;-62
2023/02/14 05:25:56;;;;;;;94.22;21.33;;;-1.90;1.00;;;;;;5075221;28;20597;-62
2023/02/14 05:28:23;;;;;;;88.13;21.40;;;-1.90;1.00;;;;;;5075358;28;20208;-62
2023/02/14 05:30:52;;;;;;;88.88;20.55;;;-1.90;1.00;;;;;;5074831;28;20209;-62
2023/02/14 05:33:19;;;;;;;87.20;19.23;;;-1.90;1.00;;;;;;5075176;28;20205;-62
2023/02/14 05:35:46;;;;;;;86.45;19.05;;;-1.90;1.00;;;;;;5074991;28;20571;-63
2023/02/14 05:38:13;;;;;;;92.30;21.33;;;-2.00;1.00;;;;;;5075096;28;20330;-62
2023/02/14 05:40:40;;;;;;;91.38;20.65;;;-2.00;1.00;;;;;;5074928;28;20201;-63
2023/02/14 05:43:07;;;;;;;99.35;21.98;;;-2.00;1.00;;;;;;5075212;28;20669;-63
2023/02/14 05:45:34;;;;;;;92.45;20.35;;;-2.00;1.00;;;;;;5074831;28;20221;-62
2023/02/14 05:48:02;;;;;;;91.45;19.33;;;-2.00;1.00;;;;;;5074790;28;20233;-62
2023/02/14 05:50:29;;;;;;;93.82;20.50;;;-2.10;1.00;;;;;;5074452;28;20231;-63
2023/02/14 05:52:56;;;;;;;97.13;24.05;;;-2.10;1.00;;;;;;5075010;28;20250;-62
2023/02/14 05:55:23;;;;;;;94.10;22.08;;;-2.10;1.00;;;;;;5074848;28;20243;-62
2023/02/14 05:57:50;;;;;;;91.10;20.75;;;-2.10;1.00;;;;;;5074606;28;20205;-61
2023/02/14 06:00:18;;;;;;;87.75;20.42;;;-2.10;1.00;;;;;;5074402;28;20593;-61
2023/02/14 06:02:45;;;;;;;93.88;20.17;;;-2.20;1.00;;;;;;5074645;28;20205;-61
2023/02/14 06:05:13;;;;;;;90.15;21.55;;;-2.20;1.00;;;;;;5074525;28;20232;-61
2023/02/14 06:07:42;;;;;;;89.65;22.20;;;-2.20;1.00;;;;;;5074597;28;20282;-62
2023/02/14 06:10:09;;;;;;;91.25;20.95;;;-2.10;1.00;;;;;;5074228;28;20244;-63
2023/02/14 06:12:36;;;;;;;92.80;22.38;;;-2.10;1.00;;;;;;5074589;28;20209;-63
2023/02/14 06:15:03;;;;;;;90.85;20.73;;;-2.10;1.00;;;;;;5073794;28;20603;-62
2023/02/14 06:17:30;;;;;;;94.57;21.48;;;-2.10;1.00;;;;;;5074142;28;20201;-62
2023/02/14 06:19:57;;;;;;;83.82;18.17;;;-2.10;1.00;;;;;;5074140;28;20205;-62
2023/02/14 06:22:25;;;;;;;87.85;20.25;;;-2.10;1.00;;;;;;5074117;28;20208;-62
2023/02/14 06:24:52;;;;;;;87.18;20.92;;;-2.20;1.00;;;;;;5073975;28;20314;-61
2023/02/14 06:27:18;;;;;;;93.35;22.38;;;-2.20;1.00;;;;;;5074046;28;20608;-61
2023/02/14 06:29:46;;;;;;;86.07;19.05;;;-2.20;1.00;;;;;;5072690;28;20319;-63
2023/02/14 06:32:13;;;;;;;91.00;22.20;;;-2.20;1.00;;;;;;5073958;28;20216;-63
2023/02/14 06:34:40;;;;;;;94.82;20.98;;;-2.20;1.00;;;;;;5074040;28;20225;-63
2023/02/14 06:37:07;;;;;;;89.93;20.02;;;-2.20;1.00;;;;;;5074098;28;20205;-62
2023/02/14 06:39:35;;;;;;;92.00;21.45;;;-2.20;1.00;;;;;;5073566;28;20206;-61
2023/02/14 06:42:01;;;;;;;88.90;20.42;;;-2.30;1.00;;;;;;5073955;28;20201;-63
2023/02/14 06:44:28;;;;;;;86.82;18.05;;;-2.20;1.00;;;;;;5073684;28;20231;-63
2023/02/14 06:46:55;;;;;;;86.70;20.80;;;-2.20;1.00;;;;;;5073934;28;20236;-60
2023/02/14 06:49:22;;;;;;;93.25;22.88;;;-2.20;1.00;;;;;;5073518;28;20216;-62
2023/02/14 06:51:49;;;;;;;86.72;19.42;;;-2.10;1.00;;;;;;5073587;28;20674;-62
2023/02/14 06:54:16;;;;;;;92.55;23.58;;;-2.20;1.00;;;;;;5073691;28;20221;-62
2023/02/14 06:56:44;;;;;;;84.63;19.38;;;-2.10;1.00;;;;;;5074039;28;20198;-62
2023/02/14 06:59:11;;;;;;;86.30;20.00;;;-2.10;1.00;;;;;;5072926;28;20209;-61
2023/02/14 07:01:38;;;;;;;99.10;21.45;;;-2.10;1.00;;;;;;5073610;28;20212;-61
2023/02/14 07:04:05;;;;;;;104.30;26.65;;;0.30;1.00;;;;;;5073321;28;20228;-62
2023/02/14 07:06:32;;;;;;;100.35;23.67;;;-0.40;1.00;;;;;;5073333;28;20244;-62
2023/02/14 07:08:59;;;;;;;107.63;28.75;;;-1.30;1.00;;;;;;5073034;28;20212;-62
2023/02/14 07:11:27;;;;;;;95.00;23.77;;;-1.60;1.00;;;;;;5073249;28;20208;-62
2023/02/14 07:13:55;;;;;;;87.78;21.67;;;-1.70;1.00;;;;;;5073102;28;20306;-62
2023/02/14 07:16:22;;;;;;;86.55;21.05;;;-1.80;1.00;;;;;;5073087;28;20205;-64
2023/02/14 07:18:49;;;;;;;88.35;18.45;;;-1.80;1.00;;;;;;5073061;28;20205;-62
2023/02/14 07:21:16;;;;;;;88.43;20.17;;;-1.80;1.00;;;;;;5073126;28;20205;-62
2023/02/14 07:23:45;;;;;;;91.90;21.23;;;-1.70;1.00;;;;;;5072906;28;20224;-64
2023/02/14 07:26:16;;;;;;;92.40;24.88;;;-1.60;1.00;;;;;;5072859;28;20258;-63
2023/02/14 07:28:43;;;;;;;99.22;24.95;;;-1.60;1.00;;;;;;5072758;28;20201;-62
2023/02/14 07:31:12;;;;;;;93.88;20.98;;;-1.60;1.00;;;;;;5073014;28;20207;-62
2023/02/14 07:33:39;;;;;;;92.30;22.90;;;-1.50;1.00;;;;;;5072739;28;20227;-63
2023/02/14 07:36:06;;;;;;;106.05;25.52;;;-1.50;1.00;;;;;;5072689;28;20650;-61
2023/02/14 07:38:33;;;;;;;100.53;26.60;;;-1.30;1.00;;;;;;5072395;28;20208;-60
2023/02/14 07:41:00;;;;;;;99.53;24.20;;;-1.30;1.00;;;;;;5072494;28;20217;-60
2023/02/14 07:43:27;;;;;;;101.05;23.63;;;-1.20;1.00;;;;;;5072759;28;20209;-61
2023/02/14 07:45:54;;;;;;;104.03;23.85;;;-1.20;1.00;;;;;;5072411;28;20229;-60
2023/02/14 07:48:22;;;;;;;95.60;23.38;;;-1.20;1.00;;;;;;5072612;28;20318;-61
2023/02/14 07:50:49;;;;;;;95.00;24.33;;;-1.00;1.00;;;;;;5072170;28;20201;-60
2023/02/14 07:53:16;;;;;;;91.38;22.20;;;-1.20;1.00;;;;;;5072310;28;20206;-62
2023/02/14 07:55:42;;;;;;;95.50;22.95;;;-1.30;1.00;;;;;;5072534;28;20221;-63
2023/02/14 07:58:09;;;;;;;92.75;22.83;;;-1.20;1.00;;;;;;5072393;28;20196;-62
2023/02/14 08:00:36;;;;;;;93.45;22.23;;;-1.20;1.00;;;;;;5072038;28;20201;-62
2023/02/14 08:03:03;;;;;;;89.05;20.25;;;-1.20;1.00;;;;;;5072356;28;20201;-62
2023/02/14 08:05:31;;;;;;;95.13;21.83;;;-1.10;1.00;;;;;;5072672;28;20566;-62
2023/02/14 08:07:58;;;;;;;92.28;22.25;;;-1.00;1.00;;;;;;5071852;28;20237;-62
2023/02/14 08:10:25;;;;;;;94.30;24.23;;;-0.90;1.00;;;;;;5072069;28;20211;-62
2023/02/14 08:13:00;;;;;;;90.78;21.65;;;-0.90;1.00;;;;;;5072268;28;20213;-62
2023/02/14 08:18:13;;;;;;;91.35;21.67;;;-0.60;1.00;;;;;;5072186;28;20197;-61
2023/02/14 08:20:42;;;;;;;93.30;23.27;;;-0.50;1.00;;;;;;5071795;28;20298;-61
2023/02/14 08:23:09;;;;;;;90.07;23.60;;;-0.40;1.00;;;;;;5071807;28;20635;-61
2023/02/14 08:25:36;;;;;;;98.72;23.58;;;-0.30;1.00;;;;;;5072277;28;20229;-61
2023/02/14 08:28:04;;;;;;;92.95;25.90;;;-0.30;1.00;;;;;;5071724;28;20233;-61
2023/02/14 08:30:31;;;;;;;91.70;24.40;;;-0.10;1.00;;;;;;5071386;28;20210;-62
2023/02/14 08:32:58;;;;;;;90.22;23.30;;;0.00;1.00;;;;;;5071720;28;20210;-62
2023/02/14 08:35:24;;;;;;;88.20;21.73;;;0.00;1.00;;;;;;5071665;28;20736;-62
2023/02/14 08:37:53;;;;;;;90.22;21.83;;;0.10;1.00;;;;;;5071983;28;20207;-64
2023/02/14 08:40:20;;;;;;;94.55;23.90;;;0.20;1.00;;;;;;5071535;28;20207;-64
2023/02/14 08:42:47;;;;;;;90.30;24.55;;;0.40;1.00;;;;;;5071556;28;20677;-63
2023/02/14 08:45:13;;;;;;;89.00;23.52;;;0.60;1.00;;;;;;5071659;28;20221;-62
2023/02/14 08:47:40;;;;;;;91.65;22.75;;;0.60;1.00;;;;;;5071517;28;20218;-62
2023/02/14 08:50:10;;;;;;;88.70;21.63;;;0.50;1.00;;;;;;5071501;28;20208;-62
2023/02/14 08:52:39;;;;;;;89.47;22.80;;;0.70;1.00;;;;;;5071169;28;20202;-61
2023/02/14 08:55:08;;;;;;;90.97;21.90;;;0.70;1.00;;;;;;5071693;28;20247;-61
2023/02/14 08:57:34;;;;;;;91.03;22.75;;;0.90;1.00;;;;;;5071597;28;20561;-61
2023/02/14 09:00:01;;;;;;;91.40;22.08;;;1.10;1.00;;;;;;5071113;28;20233;-63
2023/02/14 09:02:28;;;;;;;89.10;22.92;;;1.30;1.00;;;;;;5071723;28;20201;-62
2023/02/14 09:04:55;;;;;;;90.00;23.92;;;1.30;1.00;;;;;;5071633;28;20222;-62
2023/02/14 09:07:22;;;;;;;91.13;24.13;;;1.50;1.00;;;;;;5071590;28;20656;-62
2023/02/14 09:09:49;;;;;;;88.78;22.75;;;1.60;1.00;;;;;;5071221;28;20226;-62
2023/02/14 09:12:17;;;;;;;91.00;22.80;;;1.80;1.00;;;;;;5071461;28;20207;-63
2023/02/14 09:14:44;;;;;;;85.93;22.90;;;1.90;1.00;;;;;;5071313;28;20223;-62
2023/02/14 09:17:12;;;;;;;90.75;23.33;;;2.00;1.00;;;;;;5071499;28;20211;-62
2023/02/14 09:19:39;;;;;;;88.25;22.45;;;2.10;1.00;;;;;;5070940;28;20706;-62
2023/02/14 09:22:08;;;;;;;87.47;21.42;;;2.40;1.00;;;;;;5071407;28;20557;-62
2023/02/14 09:24:36;;;;;;;88.97;23.45;;;2.50;1.00;;;;;;5071196;28;20229;-62
2023/02/14 09:27:04;;;;;;;82.45;19.65;;;2.60;1.00;;;;;;5071068;28;20205;-62
2023/02/14 09:29:32;;;;;;;86.78;20.73;;;2.90;1.00;;;;;;5071197;28;20204;-62
2023/02/14 09:32:01;;;;;;;86.03;20.35;;;3.20;1.00;;;;;;5071181;28;20205;-62
2023/02/14 09:34:28;;;;;;;77.20;16.25;;;3.30;1.00;;;;;;5071310;28;20229;-62
2023/02/14 09:36:55;;;;;;;80.68;19.05;;;3.30;1.00;;;;;;5071635;28;20208;-62
2023/02/14 09:39:22;;;;;;;86.40;21.23;;;3.50;1.00;;;;;;5071245;28;20674;-62
2023/02/14 09:42:31;;;;;;;87.57;20.70;;;3.50;1.00;;;;;;5071083;28;20652;-62
2023/02/14 09:45:02;;;;;;;86.90;18.92;;;3.60;1.00;;;;;;5053443;28;20236;-62
2023/02/14 09:47:35;;;;;;;85.47;19.13;;;4.00;1.00;;;;;;5071150;28;20229;-62
2023/02/14 09:50:04;;;;;;;81.18;19.50;;;4.10;1.00;;;;;;5070695;28;20587;-62
2023/02/14 09:52:31;;;;;;;77.65;17.50;;;4.60;1.00;;;;;;5071157;28;20299;-62
2023/02/14 09:55:01;;;;;;;82.82;18.85;;;4.40;1.00;;;;;;5071034;28;20251;-62
2023/02/14 09:57:34;;;;;;;83.30;19.00;;;;;;;;;;5071155;28;20206;-62
2023/02/14 10:00:07;;;;;;;80.00;17.47;;;;;;;;;;5070643;28;20201;-63
2023/02/14 10:02:44;;;;;;;77.63;16.57;;;7.40;1.00;;;;;;5070947;28;20496;-63
2023/02/14 10:05:15;;;;;;;74.93;16.37;;;10.80;1.00;;;;;;5073515;28;20577;-63
2023/02/14 10:08:00;;;;;;;79.37;17.30;;;;;;;;;;5074360;28;20485;-63
2023/02/14 10:10:30;;;;;;;78.43;16.77;;;;;;;;;;5074178;28;20829;-62
2023/02/14 10:13:00;;;;;;;75.50;17.27;;;;;;;;;;5074245;28;20489;-63
2023/02/14 10:15:32;;;;;;;75.50;15.77;;;;;;;;;;5074261;28;20459;-62
2023/02/14 10:18:03;;;;;;;75.97;15.17;;;;;;;;;;5074198;28;20940;-63
2023/02/14 10:20:32;;;;;;;77.97;18.90;;;;;;;;;;5074151;28;20447;-63
2023/02/14 10:23:03;;;;;;;76.80;17.73;;;;;;;;;;5074028;28;20449;-63
2023/02/14 10:25:34;;;;;;;79.90;17.13;;;;;;;;;;5073935;28;20477;-63
2023/02/14 10:28:02;;;;;;;76.57;16.73;;;;;;;;;;5074080;28;20510;-63
2023/02/14 10:30:37;;;;;;;78.17;18.30;;;;;;;;;;5074039;28;20657;-63
2023/02/14 10:33:07;;;;;;;81.30;19.20;;;;;;;;;;5074109;28;20473;-63
2023/02/14 10:35:41;;;;;;;76.07;17.30;;;;;;;;;;5073965;28;20479;-63
2023/02/14 10:38:16;;;;;;;77.30;17.40;;;;;;;;;;5073836;28;20483;-63
2023/02/14 10:40:57;;;;;;;78.30;17.43;;;;;;;;;;5073629;28;20457;-63
2023/02/14 10:43:30;;;;;;;75.20;17.27;;;;;;;;;;5073875;28;20452;-61
2023/02/14 10:46:03;;;;;;;78.23;16.93;;;;;;;;;;5073704;28;20987;-61
2023/02/14 10:48:34;;;;;;;75.50;17.97;;;;;;;;;;5073714;28;20471;-61
2023/02/14 10:51:05;;;;;;;75.13;17.57;;;;;;;;;;5073619;28;20447;-62
2023/02/14 10:53:37;;;;;;;75.97;18.63;;;;;;;;;;5073565;28;20447;-62
2023/02/14 10:56:07;;;;;;;76.97;17.93;;;;;;;;;;5073765;28;20447;-62
2023/02/14 10:58:36;;;;;;;76.83;18.80;;;;;;;;;;5073232;28;20505;-62
2023/02/14 11:01:07;;;;;;;74.03;17.30;;;;;;;;;;5073382;28;20936;-62
2023/02/14 11:03:36;;;;;;;76.67;18.17;;;;;;;;;;5073118;28;20458;-62
2023/02/14 11:06:02;;;;;;;74.77;18.77;;;10.20;99.90;;;;;;5073490;28;20454;-62
2023/02/14 11:08:33;;;;;;;75.30;18.57;;;13.10;99.90;;;;;;5073075;28;20491;-62
2023/02/14 11:11:07;;;;;;;76.40;19.30;;;13.50;99.90;;;;;;5073288;28;20475;-62
2023/02/14 11:13:37;;;;;;;82.25;20.70;;;12.30;99.90;;;;;;5051950;28;20439;-62
2023/02/14 11:16:07;;;;;;;77.87;19.87;;;12.50;99.90;;;;;;5052170;28;20206;-62
2023/02/14 11:18:36;;;;;;;74.77;18.30;;;12.40;99.90;;;;;;5052196;28;20510;-62
2023/02/14 11:21:04;;;;;;;74.50;18.67;;;;;;;;;;5052677;28;20448;-62
2023/02/14 11:23:37;;;;;;;74.87;18.77;;;12.00;99.90;;;;;;5052335;28;20467;-62
2023/02/14 11:26:08;;;;;;;80.20;20.00;;;13.70;99.90;;;;;;5051111;28;20440;-62
2023/02/14 11:28:35;;;;;;;77.70;20.03;;;12.00;99.90;;;;;;5050814;28;20488;-62
2023/02/14 11:31:02;;;;;;;75.03;18.80;;;12.80;99.90;;;;;;5051575;28;20452;-62
2023/02/14 11:33:37;;;;;;;76.77;20.73;;;14.30;99.90;;;;;;5052229;28;20460;-62
2023/02/14 11:36:09;;;;;;;78.07;21.00;;;15.30;99.90;;;;;;5052106;28;20443;-62
2023/02/14 11:38:38;;;;;;;75.03;19.60;;;14.40;99.90;;;;;;5051983;28;20452;-62
2023/02/14 11:41:06;;;;;;;74.03;19.60;;;;;;;;;;5052565;28;20453;-62
2023/02/14 11:43:35;;;;;;;73.77;19.27;;;;;;;;;;5052603;28;20448;-63
2023/02/14 11:46:07;;;;;;;77.00;19.60;;;;;;;;;;5052356;28;20471;-62
2023/02/14 11:48:35;;;;;;;76.57;20.40;;;;;;;;;;5051925;28;20502;-62
2023/02/14 11:51:04;;;;;;;74.20;19.53;;;;;;;;;;5052728;28;20487;-63
2023/02/14 11:53:37;;;;;;;75.47;21.50;;;;;;;;;;5052551;28;20448;-63
2023/02/14 11:56:04;;;;;;;73.13;19.60;;;14.50;99.90;;;;;;5052144;28;20452;-63
2023/02/14 11:58:33;;;;;;;76.70;19.90;;;;;;;;;;5051707;28;20448;-63
2023/02/14 12:01:01;;;;;;;73.80;19.83;;;;;;;;;;5051939;28;20448;-63
2023/02/14 12:03:29;;;;;;;74.50;18.20;;;;;;;;;;5052259;28;20801;-62
2023/02/14 12:06:00;;;;;;;72.67;19.60;;;;;;;;;;5051426;28;20480;-63
2023/02/14 12:08:30;;;;;;;76.30;18.93;;;;;;;;;;5051971;28;20530;-63
2023/02/14 12:11:04;;;;;;;74.57;19.17;;;;;;;;;;5052082;28;20484;-63
2023/02/14 12:13:31;;;;;;;72.20;18.10;;;;;;;;;;5051848;28;20452;-64
2023/02/14 12:15:59;;;;;;;72.70;20.73;;;;;;;;;;5051595;28;20503;-63
2023/02/14 12:18:37;;;;;;;71.20;18.40;;;;;;;;;;5051416;28;20498;-63
2023/02/14 12:21:12;;;;;;;72.23;19.17;;;;;;;;;;5051586;28;20474;-63
2023/02/14 12:23:42;;;;;;;71.50;18.60;;;;;;;;;;5051712;28;20883;-62
2023/02/14 12:26:14;;;;;;;71.90;18.70;;;;;;;;;;5051273;28;20448;-63
2023/02/14 12:28:44;;;;;;;71.20;18.33;;;;;;;;;;5050566;28;20565;-63
2023/02/14 12:31:11;;;;;;;71.93;18.90;;;;;;;;;;5051255;28;20452;-63
2023/02/14 12:33:39;;;;;;;70.40;18.17;;;;;;;;;;5051544;28;20456;-62
2023/02/14 12:36:11;;;;;;;72.00;17.70;;;;;;;;;;5051213;28;20456;-63
2023/02/14 12:38:42;;;;;;;72.33;18.57;;;;;;;;;;5050458;28;20890;-63
2023/02/14 12:41:18;;;;;;;72.37;19.83;;;;;;;;;;5051060;28;20445;-63
2023/02/14 12:43:49;;;;;;;72.40;20.00;;;;;;;;;;5051473;28;20455;-63
2023/02/14 12:46:32;;;;;;;72.20;19.53;;;;;;;;;;5051757;28;20463;-63
2023/02/14 12:49:08;;;;;;;72.03;18.60;;;;;;;;;;5050857;28;20856;-64
2023/02/14 12:51:40;;;;;;;72.87;18.80;;;;;;;;;;5051621;28;20444;-64
2023/02/14 12:54:13;;;;;;;70.77;18.30;;;;;;;;;;5051451;28;20476;-64
2023/02/14 12:56:46;;;;;;;71.10;19.50;;;;;;;;;;5051184;28;20452;-63
2023/02/14 12:59:19;;;;;;;74.30;18.77;;;;;;;;;;5050275;28;20441;-63
2023/02/14 13:02:00;;;;;;;71.77;18.13;;;;;;;;;;5050954;28;20786;-63
2023/02/14 13:04:33;;;;;;;70.97;18.30;;;;;;;;;;5051522;28;20472;-63
2023/02/14 13:07:07;;;;;;;71.97;19.20;;;;;;;;;;5051497;28;20444;-63
2023/02/14 13:09:37;;;;;;;70.37;18.73;;;;;;;;;;5050808;28;20538;-63
2023/02/14 13:12:10;;;;;;;72.70;18.37;;;;;;;;;;5051221;28;20964;-63
2023/02/14 13:14:49;;;;;;;69.77;17.77;;;;;;;;;;5051262;28;20472;-64
2023/02/14 13:17:21;;;;;;;72.67;18.93;;;;;;;;;;5050937;28;20444;-64
2023/02/14 13:19:55;;;;;;;69.77;17.70;;;;;;;;;;5049907;28;20487;-63
2023/02/14 13:22:25;;;;;;;70.97;18.30;;;;;;;;;;5051092;28;20552;-63